Clio, SC

4:46 AM EST on March 04, 2015 (GMT -0500)
Marlboro County-Avent | Change Station
CLOSE
Current Station
Airport
Location: Bennettsville,
Elevation: 148 ft
Nearby Weather Stations
Active Advisory: Dense Fog Advisory

Elev 148 ft 34.62 °N, 79.73 °W | Updated 11 minutes ago

Fog
Fog
32 °F
Feels Like 29 °F
N
4
Wind Variable Wind from South

Today
High -- | Low -- °F
--% Chance of Precip.
Yesterday
High -- | Low -- °F
Precip. -- in
6:43 AM 6:16 PM
Waxing Gibbous, 98% visible
Pressure 30.05 in
Visibility 0.8 miles
Clouds Overcast 100 ft
Windchill 29 °F
Dew Point 32 °F
Humidity 100%
Rainfall 0.00 in
Snow Depth Not available.
UV 0 out of 12
Pollen 3.20 out of 12
Air Quality Not available.
Flu Activity Not available.
METAR KBBP 040935Z AUTO 19003KT 3/4SM BR OVC001 00/00 A3005 RMK AO2

More Conditions Fewer Conditions

Pressure 30.05 in
Visibility 0.8 miles
Clouds Overcast 100 ft
Windchill 29 °F
Dew Point 32 °F
Humidity 100%
Rainfall 0.00 in
Snow Depth Not available.
UV 0 out of 12
Pollen 3.20 out of 12
Air Quality Not available.
Flu Activity Not available.
METAR KBBP 040935Z AUTO 19003KT 3/4SM BR OVC001 00/00 A3005 RMK AO2

More Conditions Fewer Conditions

10-Day Weather Forecast

Almanac

Astronomy

Mar. 04, 2015 Rise Set
Actual Time
Civil Twilight
Nautical Twilight
Astronomical Twilight
Moon
Length of Visible Light
Length of Day
Tomorrow will be .
, % of the Moon is Illuminated

Today's Extremes

State Highs State Lows

Community

WunderPhotos

Upload Photos

1,802,425 photos uploaded!

WunderBlogs® & News

Nearby

Air Quality

  Air Quality AQ Index Pollutant
Not available.

Snow Depth

Station Depth Elevation

Earthquake Activity

City Distance Mag. Time & Date
Minimum magnitude displayed is 2.5.

Coastal Water Temperatures

Place Temperature

Nearby Weather Stations

Dense Fog Advisory
Statement as of 3:29 AM EST on March 04, 2015

... Dense fog advisory remains in effect until 9 am EST this
morning...

* visibilities... one quarter mile or less at times.

* Timing... through 9 am.

* Visibility... one-quarter mile at times.

* Impacts... hazardous driving conditions.

Precautionary/preparedness actions...

Visibilities will frequently be reduced to less than one quarter
mile. If driving... slow down... use your low beam headlights... and
leave plenty of distance ahead of you.